createdAt,value
2019-03-06T00:00:36.256Z,994.98
2019-03-06T00:01:36.214Z,995.02
2019-03-06T00:02:36.206Z,995.00
2019-03-06T00:03:36.186Z,995.00
2019-03-06T00:04:36.175Z,994.98
2019-03-06T00:05:36.176Z,995.00
2019-03-06T00:06:36.156Z,994.99
2019-03-06T00:07:36.146Z,994.96
2019-03-06T00:08:36.155Z,995.01
2019-03-06T00:09:36.126Z,994.98
2019-03-06T00:10:36.104Z,994.98
2019-03-06T00:11:36.110Z,994.94
2019-03-06T00:12:36.090Z,994.94
2019-03-06T00:13:36.082Z,994.98
2019-03-06T00:14:36.061Z,994.96
2019-03-06T00:15:36.061Z,994.92
2019-03-06T00:16:36.064Z,994.91
2019-03-06T00:17:36.030Z,994.94
2019-03-06T00:18:36.025Z,994.91
2019-03-06T00:19:36.017Z,994.91
2019-03-06T00:20:36.001Z,994.87
2019-03-06T00:21:36.018Z,994.83
2019-03-06T00:22:35.974Z,994.81
2019-03-06T00:23:35.966Z,994.82
2019-03-06T00:24:35.968Z,994.82
2019-03-06T00:25:35.949Z,994.78
2019-03-06T00:26:35.967Z,994.72
2019-03-06T00:27:35.925Z,994.68
2019-03-06T00:28:35.941Z,994.73
2019-03-06T00:29:35.899Z,994.71
2019-03-06T00:30:35.905Z,994.67
2019-03-06T00:31:35.884Z,994.60
2019-03-06T00:32:35.872Z,994.61
2019-03-06T00:33:35.868Z,994.63
2019-03-06T00:34:35.862Z,994.69
2019-03-06T00:35:35.837Z,994.63
2019-03-06T00:36:35.835Z,994.70
2019-03-06T00:37:35.812Z,994.63
2019-03-06T00:38:35.808Z,994.64
2019-03-06T00:39:35.795Z,994.56
2019-03-06T00:40:35.799Z,994.53
2019-03-06T00:41:35.778Z,994.53
2019-03-06T00:42:35.766Z,994.54
2019-03-06T00:43:35.753Z,994.58
2019-03-06T00:44:35.764Z,994.58
2019-03-06T00:45:35.735Z,994.55
2019-03-06T00:46:35.731Z,994.56
2019-03-06T00:47:35.706Z,994.49
2019-03-06T00:48:35.723Z,994.54
2019-03-06T00:49:36.251Z,994.56
2019-03-06T00:50:35.678Z,994.50
2019-03-06T00:51:35.667Z,994.48
2019-03-06T00:52:35.660Z,994.50
2019-03-06T00:53:35.652Z,994.56
2019-03-06T00:54:35.642Z,994.54
2019-03-06T00:55:35.619Z,994.54
2019-03-06T00:56:35.610Z,994.52
2019-03-06T00:57:35.597Z,994.47
2019-03-06T00:58:35.605Z,994.45
2019-03-06T00:59:35.590Z,994.49
2019-03-06T01:00:35.565Z,994.44
2019-03-06T01:01:35.577Z,994.38
2019-03-06T01:02:35.552Z,994.41
2019-03-06T01:03:35.537Z,994.37
2019-03-06T01:04:35.541Z,994.42
2019-03-06T01:05:35.524Z,994.39
2019-03-06T01:06:35.506Z,994.37
2019-03-06T01:07:35.489Z,994.38
2019-03-06T01:08:35.479Z,994.35
2019-03-06T01:09:35.478Z,994.37
2019-03-06T01:10:35.468Z,994.38
2019-03-06T01:11:35.458Z,994.40
2019-03-06T01:12:35.441Z,994.35
2019-03-06T01:13:35.444Z,994.34
2019-03-06T01:14:35.424Z,994.31
2019-03-06T01:15:35.409Z,994.29
2019-03-06T01:16:35.401Z,994.28
2019-03-06T01:17:35.416Z,994.29
2019-03-06T01:18:35.380Z,994.27
2019-03-06T01:19:35.368Z,994.34
2019-03-06T01:20:35.351Z,994.26
2019-03-06T01:21:35.334Z,994.25
2019-03-06T01:22:35.343Z,994.21
2019-03-06T01:23:35.333Z,994.27
2019-03-06T01:24:35.313Z,994.27
2019-03-06T01:25:35.309Z,994.25
2019-03-06T01:26:35.287Z,994.22
2019-03-06T01:27:35.282Z,994.16
2019-03-06T01:28:35.280Z,994.19
2019-03-06T01:29:35.251Z,994.24
2019-03-06T01:30:35.249Z,994.20
2019-03-06T01:31:35.239Z,994.15
2019-03-06T01:32:35.220Z,994.15
2019-03-06T01:33:35.228Z,994.13
2019-03-06T01:34:35.217Z,994.11
2019-03-06T01:35:35.183Z,994.13
2019-03-06T01:36:35.190Z,994.09
2019-03-06T01:37:35.165Z,994.09
2019-03-06T01:38:35.163Z,994.07
2019-03-06T01:39:35.152Z,994.08
2019-03-06T01:40:35.153Z,994.09
2019-03-06T01:41:35.139Z,994.08
2019-03-06T01:42:35.116Z,994.10
2019-03-06T01:43:35.102Z,994.03
2019-03-06T01:44:35.092Z,994.05
2019-03-06T01:45:35.085Z,994.05
2019-03-06T01:46:35.091Z,993.99
2019-03-06T01:47:35.053Z,994.03
2019-03-06T01:48:35.048Z,994.01
2019-03-06T01:49:35.035Z,994.01
2019-03-06T01:50:35.020Z,993.93
2019-03-06T01:51:35.022Z,993.92
2019-03-06T01:52:35.019Z,993.96
2019-03-06T01:53:34.993Z,993.99
2019-03-06T01:54:35.002Z,993.91
2019-03-06T01:55:34.967Z,993.96
2019-03-06T01:56:34.974Z,994.01
2019-03-06T01:57:34.951Z,993.91
2019-03-06T01:58:34.936Z,993.95
2019-03-06T01:59:34.930Z,994.02
2019-03-06T02:00:34.919Z,993.93
2019-03-06T02:01:34.913Z,993.89
2019-03-06T02:02:34.893Z,993.92
2019-03-06T02:03:34.888Z,993.89
2019-03-06T02:04:34.943Z,993.87
2019-03-06T02:05:34.863Z,993.89
2019-03-06T02:06:34.855Z,993.88
2019-03-06T02:07:34.841Z,993.91
2019-03-06T02:08:34.834Z,993.81
2019-03-06T02:09:34.835Z,993.88
2019-03-06T02:10:34.820Z,993.89
2019-03-06T02:11:34.801Z,993.83
2019-03-06T02:12:34.790Z,993.83
2019-03-06T02:13:34.780Z,993.76
2019-03-06T02:14:34.772Z,993.71
2019-03-06T02:15:34.754Z,993.73
2019-03-06T02:16:34.768Z,993.70
2019-03-06T02:17:34.732Z,993.65
2019-03-06T02:18:34.734Z,993.62
2019-03-06T02:19:34.724Z,993.61
2019-03-06T02:20:34.700Z,993.63
2019-03-06T02:21:34.705Z,993.57
2019-03-06T02:22:34.674Z,993.62
2019-03-06T02:23:34.676Z,993.64
2019-03-06T02:24:34.660Z,993.55
2019-03-06T02:25:34.650Z,993.58
2019-03-06T02:26:34.640Z,993.50
2019-03-06T02:27:34.631Z,993.48
2019-03-06T02:28:34.612Z,993.52
2019-03-06T02:29:34.599Z,993.53
2019-03-06T02:30:34.587Z,993.51
2019-03-06T02:31:34.587Z,993.59
2019-03-06T02:32:34.574Z,993.54
2019-03-06T02:33:34.572Z,993.58
2019-03-06T02:34:34.543Z,993.52
2019-03-06T02:35:34.544Z,993.60
2019-03-06T02:36:34.529Z,993.55
2019-03-06T02:37:34.542Z,993.59
2019-03-06T02:38:34.510Z,993.60
2019-03-06T02:39:34.495Z,993.57
2019-03-06T02:40:34.512Z,993.51
2019-03-06T02:41:34.471Z,993.46
2019-03-06T02:42:34.476Z,993.46
2019-03-06T02:43:34.478Z,993.58
2019-03-06T02:44:34.447Z,993.52
2019-03-06T02:45:34.429Z,993.49
2019-03-06T02:46:34.425Z,993.45
2019-03-06T02:47:34.403Z,993.43
2019-03-06T02:48:34.414Z,993.42
2019-03-06T02:49:34.395Z,993.44
2019-03-06T02:50:34.378Z,993.45
2019-03-06T02:51:34.363Z,993.34
2019-03-06T02:52:34.368Z,993.43
2019-03-06T02:53:34.338Z,993.45
2019-03-06T02:54:34.329Z,993.56
2019-03-06T02:55:34.329Z,993.40
2019-03-06T02:56:34.316Z,993.41
2019-03-06T02:57:34.297Z,993.30
2019-03-06T02:58:34.301Z,993.31
2019-03-06T02:59:34.281Z,993.26
2019-03-06T03:00:34.283Z,993.25
2019-03-06T03:01:34.261Z,993.17
2019-03-06T03:02:34.246Z,993.13
2019-03-06T03:03:34.253Z,993.20
2019-03-06T03:04:34.217Z,993.15
2019-03-06T03:05:34.216Z,993.07
2019-03-06T03:06:34.209Z,992.98
2019-03-06T03:07:34.188Z,993.03
2019-03-06T03:08:34.185Z,992.89
2019-03-06T03:09:34.163Z,992.85
2019-03-06T03:10:34.154Z,992.83
2019-03-06T03:11:34.147Z,992.84
2019-03-06T03:12:34.142Z,992.84
2019-03-06T03:13:34.145Z,992.82
2019-03-06T03:14:34.113Z,992.78
2019-03-06T03:15:34.099Z,992.73
2019-03-06T03:16:34.089Z,992.72
2019-03-06T03:17:34.084Z,992.75
2019-03-06T03:18:34.071Z,992.70
2019-03-06T03:19:34.070Z,992.72
2019-03-06T03:20:34.051Z,992.80
2019-03-06T03:21:34.030Z,992.72
2019-03-06T03:22:34.028Z,992.75
2019-03-06T03:23:34.042Z,992.75
2019-03-06T03:24:34.022Z,992.73
2019-03-06T03:25:33.996Z,992.73
2019-03-06T03:26:33.985Z,992.80
2019-03-06T03:27:33.972Z,992.81
2019-03-06T03:28:33.964Z,992.77
2019-03-06T03:29:33.954Z,992.67
2019-03-06T03:30:33.954Z,992.68
2019-03-06T03:31:33.931Z,992.68
2019-03-06T03:32:33.926Z,992.66
2019-03-06T03:33:33.910Z,992.66
2019-03-06T03:34:33.916Z,992.62
2019-03-06T03:35:33.885Z,992.62
2019-03-06T03:36:33.882Z,992.67
2019-03-06T03:37:33.874Z,992.68
2019-03-06T03:38:33.852Z,992.65
2019-03-06T03:39:33.855Z,992.64
2019-03-06T03:40:33.824Z,992.60
2019-03-06T03:41:33.817Z,992.61
2019-03-06T03:42:33.810Z,992.52
2019-03-06T03:43:33.798Z,992.49
2019-03-06T03:44:33.794Z,992.49
2019-03-06T03:45:33.802Z,992.49
2019-03-06T03:46:33.765Z,992.55
2019-03-06T03:47:33.761Z,992.58
2019-03-06T03:48:33.742Z,992.55
2019-03-06T03:49:33.744Z,992.60
2019-03-06T03:50:33.721Z,992.53
2019-03-06T03:51:33.727Z,992.53
2019-03-06T03:52:33.701Z,992.50
2019-03-06T03:53:33.719Z,992.44
2019-03-06T03:54:33.675Z,992.40
2019-03-06T03:55:33.683Z,992.37
2019-03-06T03:56:33.667Z,992.34
2019-03-06T03:57:33.658Z,992.30
2019-03-06T03:58:33.639Z,992.25
2019-03-06T03:59:33.625Z,992.25
2019-03-06T04:00:33.616Z,992.26
2019-03-06T04:01:33.625Z,992.26
2019-03-06T04:02:33.608Z,992.25
2019-03-06T04:03:33.579Z,992.20
2019-03-06T04:04:33.577Z,992.22
2019-03-06T04:05:33.563Z,992.15
2019-03-06T04:06:33.562Z,992.14
2019-03-06T04:07:33.535Z,992.12
2019-03-06T04:08:33.528Z,992.12
2019-03-06T04:09:33.521Z,992.10
2019-03-06T04:10:33.509Z,992.17
2019-03-06T04:11:33.542Z,992.10
2019-03-06T04:12:34.341Z,992.11
2019-03-06T04:13:33.467Z,992.07
2019-03-06T04:14:33.465Z,992.08
2019-03-06T04:15:33.456Z,992.04
2019-03-06T04:16:33.446Z,992.13
2019-03-06T04:17:33.451Z,992.08
2019-03-06T04:18:33.425Z,992.04
2019-03-06T04:19:33.418Z,992.00
2019-03-06T04:20:33.395Z,992.00
2019-03-06T04:21:33.379Z,991.96
2019-03-06T04:22:33.389Z,992.00
2019-03-06T04:23:33.363Z,991.91
2019-03-06T04:24:33.354Z,991.95
2019-03-06T04:25:33.334Z,991.93
2019-03-06T04:26:33.331Z,991.95
2019-03-06T04:27:33.334Z,991.90
2019-03-06T04:28:33.317Z,991.89
2019-03-06T04:29:33.313Z,991.91
2019-03-06T04:30:33.288Z,991.86
2019-03-06T04:31:33.278Z,991.88
2019-03-06T04:32:33.271Z,991.86
2019-03-06T04:33:33.262Z,991.89
2019-03-06T04:34:33.247Z,991.89
2019-03-06T04:35:33.232Z,991.90
2019-03-06T04:36:33.225Z,991.92
2019-03-06T04:37:33.225Z,991.90
2019-03-06T04:38:33.217Z,991.95
2019-03-06T04:39:33.190Z,991.99
2019-03-06T04:40:33.186Z,992.02
2019-03-06T04:41:33.175Z,992.03
2019-03-06T04:42:33.191Z,992.08
2019-03-06T04:43:33.162Z,992.18
2019-03-06T04:44:33.139Z,992.22
2019-03-06T04:45:33.115Z,992.26
2019-03-06T04:46:33.106Z,992.28
2019-03-06T04:47:33.107Z,992.23
2019-03-06T04:48:33.111Z,992.16
2019-03-06T04:49:33.081Z,992.11
2019-03-06T04:50:33.066Z,991.99
2019-03-06T04:51:33.056Z,991.91
2019-03-06T04:52:33.040Z,991.96
2019-03-06T04:53:33.039Z,991.99
2019-03-06T04:54:33.021Z,991.91
2019-03-06T04:55:33.014Z,991.85
2019-03-06T04:56:33.009Z,991.87
2019-03-06T04:57:32.984Z,991.78
2019-03-06T04:58:32.992Z,991.78
2019-03-06T04:59:33.009Z,991.74
2019-03-06T05:00:32.960Z,991.71
2019-03-06T05:01:32.955Z,991.71
2019-03-06T05:02:32.941Z,991.70
2019-03-06T05:03:32.924Z,991.61
2019-03-06T05:04:32.929Z,991.63
2019-03-06T05:05:32.903Z,991.56
2019-03-06T05:06:32.892Z,991.55
2019-03-06T05:07:32.885Z,991.50
2019-03-06T05:08:32.877Z,991.61
2019-03-06T05:09:32.864Z,991.54
2019-03-06T05:10:32.859Z,991.53
2019-03-06T05:11:32.860Z,991.54
2019-03-06T05:12:32.823Z,991.48
2019-03-06T05:13:32.823Z,991.47
2019-03-06T05:14:32.804Z,991.46
2019-03-06T05:15:32.790Z,991.40
2019-03-06T05:16:32.777Z,991.39
2019-03-06T05:17:32.784Z,991.37
2019-03-06T05:18:32.757Z,991.28
2019-03-06T05:19:32.763Z,991.18
2019-03-06T05:20:32.745Z,991.18
2019-03-06T05:21:32.737Z,991.23
2019-03-06T05:22:32.729Z,991.15
2019-03-06T05:23:32.708Z,991.12
2019-03-06T05:24:32.707Z,991.14
2019-03-06T05:25:32.681Z,991.10
2019-03-06T05:26:32.675Z,991.05
2019-03-06T05:27:32.665Z,991.00
2019-03-06T05:28:32.656Z,990.94
2019-03-06T05:29:32.641Z,991.01
2019-03-06T05:30:32.648Z,990.97
2019-03-06T05:31:32.626Z,990.95
2019-03-06T05:32:32.611Z,991.00
2019-03-06T05:33:32.601Z,991.00
2019-03-06T05:34:32.586Z,991.03
2019-03-06T05:35:32.576Z,991.01
2019-03-06T05:36:32.574Z,990.96
2019-03-06T05:37:32.552Z,990.86
2019-03-06T05:38:32.541Z,990.88
2019-03-06T05:39:32.545Z,990.89
2019-03-06T05:40:32.524Z,990.88
2019-03-06T05:41:32.524Z,990.83
2019-03-06T05:42:32.511Z,990.86
2019-03-06T05:43:32.487Z,990.89
2019-03-06T05:44:32.486Z,990.85
2019-03-06T05:45:32.490Z,991.00
2019-03-06T05:46:32.505Z,990.84
2019-03-06T05:47:32.450Z,990.73
2019-03-06T05:48:32.431Z,990.76
2019-03-06T05:49:32.418Z,990.78
2019-03-06T05:50:32.412Z,990.81
2019-03-06T05:51:32.417Z,990.69
2019-03-06T05:52:32.406Z,990.70
2019-03-06T05:53:32.383Z,990.66
2019-03-06T05:54:32.375Z,990.65
2019-03-06T05:55:32.357Z,990.61
2019-03-06T05:56:32.342Z,990.55
2019-03-06T05:57:32.349Z,990.59
2019-03-06T05:58:32.324Z,990.57
2019-03-06T05:59:32.318Z,990.56
2019-03-06T06:00:32.313Z,990.58
2019-03-06T06:01:32.295Z,990.46
2019-03-06T06:02:32.300Z,990.51
2019-03-06T06:03:32.280Z,990.46
2019-03-06T06:04:32.263Z,990.44
2019-03-06T06:05:32.254Z,990.40
2019-03-06T06:06:32.263Z,990.45
2019-03-06T06:07:32.228Z,990.55
2019-03-06T06:08:32.222Z,990.44
2019-03-06T06:09:32.200Z,990.55
2019-03-06T06:10:32.194Z,990.41
2019-03-06T06:11:32.231Z,990.43
2019-03-06T06:12:32.198Z,990.43
2019-03-06T06:13:32.168Z,990.41
2019-03-06T06:14:32.153Z,990.41
2019-03-06T06:15:32.139Z,990.40
2019-03-06T06:16:32.125Z,990.42
2019-03-06T06:17:32.128Z,990.40
2019-03-06T06:18:32.121Z,990.42
2019-03-06T06:19:32.097Z,990.44
2019-03-06T06:20:32.081Z,990.44
2019-03-06T06:21:32.073Z,990.48
2019-03-06T06:22:32.078Z,990.41
2019-03-06T06:23:32.054Z,990.45
2019-03-06T06:24:32.048Z,990.36
2019-03-06T06:25:32.040Z,990.46
2019-03-06T06:26:32.022Z,990.31
2019-03-06T06:27:32.010Z,990.30
2019-03-06T06:28:32.013Z,990.26
2019-03-06T06:29:31.983Z,990.35
2019-03-06T06:30:31.982Z,990.33
2019-03-06T06:31:31.972Z,990.29
2019-03-06T06:32:32.989Z,990.28
2019-03-06T06:33:31.955Z,990.30
2019-03-06T06:34:31.975Z,990.32
2019-03-06T06:35:31.924Z,990.34
2019-03-06T06:36:31.919Z,990.38
2019-03-06T06:37:31.905Z,990.29
2019-03-06T06:38:31.915Z,990.25
2019-03-06T06:39:31.878Z,990.26
2019-03-06T06:40:31.875Z,990.27
2019-03-06T06:41:31.853Z,990.27
2019-03-06T06:42:31.896Z,990.17
2019-03-06T06:43:31.839Z,990.19
2019-03-06T06:44:31.852Z,990.17
2019-03-06T06:45:31.821Z,990.20
2019-03-06T06:46:31.817Z,990.22
2019-03-06T06:47:31.794Z,990.15
2019-03-06T06:48:31.789Z,990.17
2019-03-06T06:49:31.802Z,990.18
2019-03-06T06:50:31.772Z,990.26
2019-03-06T06:51:31.748Z,990.16
2019-03-06T06:52:31.739Z,990.23
2019-03-06T06:53:31.725Z,990.18
2019-03-06T06:54:31.715Z,990.20
2019-03-06T06:55:31.719Z,990.14
2019-03-06T06:56:31.698Z,990.23
2019-03-06T06:57:31.697Z,990.12
2019-03-06T06:58:31.759Z,990.13
2019-03-06T06:59:31.677Z,990.14
2019-03-06T07:00:31.646Z,989.99
2019-03-06T07:01:31.638Z,990.05
2019-03-06T07:02:31.630Z,990.05
2019-03-06T07:03:31.626Z,990.06
2019-03-06T07:04:31.631Z,990.03
2019-03-06T07:05:31.597Z,990.02
2019-03-06T07:06:31.584Z,989.94
2019-03-06T07:07:31.576Z,990.01
2019-03-06T07:08:31.569Z,989.90
2019-03-06T07:09:31.557Z,989.84
2019-03-06T07:10:31.563Z,989.87
2019-03-06T07:11:31.529Z,989.95
2019-03-06T07:12:31.518Z,989.87
2019-03-06T07:13:31.509Z,989.83
2019-03-06T07:14:31.502Z,989.89
2019-03-06T07:15:31.497Z,989.85
2019-03-06T07:16:31.503Z,989.79
2019-03-06T07:17:31.479Z,989.79
2019-03-06T07:18:31.459Z,989.77
2019-03-06T07:19:31.440Z,989.79
2019-03-06T07:20:31.447Z,989.74
2019-03-06T07:21:31.427Z,989.69
2019-03-06T07:22:31.422Z,989.66
2019-03-06T07:23:31.397Z,989.68
2019-03-06T07:24:31.390Z,989.67
2019-03-06T07:25:31.380Z,989.64
2019-03-06T07:26:31.389Z,989.73
2019-03-06T07:27:31.366Z,989.70
2019-03-06T07:28:31.346Z,989.67
2019-03-06T07:29:31.340Z,989.66
2019-03-06T07:30:31.328Z,989.71
2019-03-06T07:31:31.312Z,989.68
2019-03-06T07:32:31.319Z,989.68
2019-03-06T07:33:31.288Z,989.72
2019-03-06T07:34:31.290Z,989.84
2019-03-06T07:35:31.271Z,989.70
2019-03-06T07:36:31.259Z,989.72
2019-03-06T07:37:31.252Z,989.67
2019-03-06T07:38:31.251Z,989.67
2019-03-06T07:39:32.187Z,989.69
2019-03-06T07:40:31.216Z,989.65
2019-03-06T07:41:31.203Z,989.72
2019-03-06T07:42:31.196Z,989.61
2019-03-06T07:43:31.207Z,989.61
2019-03-06T07:44:31.168Z,989.58
2019-03-06T07:45:31.170Z,989.52
2019-03-06T07:46:31.143Z,989.49
2019-03-06T07:47:31.140Z,989.51
2019-03-06T07:48:31.144Z,989.50
2019-03-06T07:49:31.118Z,989.55
2019-03-06T07:50:31.107Z,989.58
2019-03-06T07:51:31.955Z,989.60
2019-03-06T07:52:31.081Z,989.45
2019-03-06T07:53:31.079Z,989.48
2019-03-06T07:54:31.077Z,989.48
2019-03-06T07:55:31.051Z,989.45
2019-03-06T07:56:31.038Z,989.44
2019-03-06T07:57:31.030Z,989.47
2019-03-06T07:58:31.013Z,989.51
2019-03-06T07:59:31.029Z,989.58
2019-03-06T08:00:31.002Z,989.52
2019-03-06T08:01:30.989Z,989.35
2019-03-06T08:02:31.044Z,989.36
2019-03-06T08:03:30.960Z,989.44
2019-03-06T08:04:30.954Z,989.24
2019-03-06T08:05:30.951Z,989.31
2019-03-06T08:06:30.939Z,989.41
2019-03-06T08:07:30.931Z,989.39
2019-03-06T08:08:30.929Z,989.46
2019-03-06T08:09:30.901Z,989.37
2019-03-06T08:10:30.899Z,989.42
2019-03-06T08:11:30.887Z,989.37
2019-03-06T08:12:30.875Z,989.55
2019-03-06T08:13:30.875Z,989.49
2019-03-06T08:14:30.849Z,989.43
2019-03-06T08:15:30.841Z,989.45
2019-03-06T08:16:30.825Z,989.47
2019-03-06T08:17:30.813Z,989.46
2019-03-06T08:18:30.805Z,989.54
2019-03-06T08:19:30.806Z,989.40
2019-03-06T08:20:30.801Z,989.49
2019-03-06T08:21:30.769Z,989.35
2019-03-06T08:22:30.772Z,989.40
2019-03-06T08:23:30.748Z,989.37
2019-03-06T08:24:30.854Z,989.37
2019-03-06T08:25:30.739Z,989.47
2019-03-06T08:26:30.746Z,989.41
2019-03-06T08:27:30.700Z,989.48
2019-03-06T08:28:30.726Z,989.47
2019-03-06T08:29:30.689Z,989.34
2019-03-06T08:30:30.666Z,989.35
2019-03-06T08:31:30.675Z,989.35
2019-03-06T08:32:30.650Z,989.26
2019-03-06T08:33:30.644Z,989.33
2019-03-06T08:34:30.650Z,989.34
2019-03-06T08:35:30.613Z,989.40
2019-03-06T08:36:30.607Z,989.34
2019-03-06T08:37:30.598Z,989.34
2019-03-06T08:38:30.583Z,989.38
2019-03-06T08:39:30.583Z,989.32
2019-03-06T08:40:30.576Z,989.27
2019-03-06T08:41:30.566Z,989.31
2019-03-06T08:42:32.502Z,989.22
2019-03-06T08:43:30.557Z,989.23
2019-03-06T08:44:30.571Z,989.18
2019-03-06T08:45:30.515Z,989.25
2019-03-06T08:46:30.541Z,989.23
2019-03-06T08:47:30.493Z,989.17
2019-03-06T08:48:30.486Z,989.13
2019-03-06T08:49:30.487Z,989.12
2019-03-06T08:50:30.463Z,989.16
2019-03-06T08:51:30.463Z,989.14
2019-03-06T08:52:30.437Z,989.08
2019-03-06T08:53:30.431Z,989.06
2019-03-06T08:54:30.419Z,989.12
2019-03-06T08:55:30.410Z,989.10
2019-03-06T08:56:30.389Z,989.06
2019-03-06T08:57:30.380Z,989.13
2019-03-06T08:58:30.376Z,989.14
2019-03-06T08:59:30.353Z,989.11
2019-03-06T09:00:30.613Z,989.26
2019-03-06T09:01:30.332Z,989.14
2019-03-06T09:02:30.319Z,989.14
2019-03-06T09:03:30.318Z,989.16
2019-03-06T09:04:30.305Z,989.15
2019-03-06T09:05:30.990Z,989.16
2019-03-06T09:06:30.292Z,989.10
2019-03-06T09:07:30.274Z,989.04
2019-03-06T09:08:30.255Z,989.06
2019-03-06T09:09:30.251Z,989.05
2019-03-06T09:10:30.242Z,989.02
2019-03-06T09:11:30.296Z,988.97
2019-03-06T09:12:30.221Z,988.91
2019-03-06T09:13:30.215Z,988.93
2019-03-06T09:14:30.195Z,988.85
2019-03-06T09:15:30.187Z,988.87
2019-03-06T09:16:30.174Z,988.82
2019-03-06T09:17:30.182Z,988.81
2019-03-06T09:18:30.153Z,988.91
2019-03-06T09:19:30.137Z,988.79
2019-03-06T09:20:37.246Z,988.73
2019-03-06T09:21:31.126Z,988.70
2019-03-06T09:22:30.110Z,988.66
2019-03-06T09:23:30.107Z,988.65
2019-03-06T09:24:30.084Z,988.69
2019-03-06T09:25:30.080Z,988.64
2019-03-06T09:26:30.069Z,988.60
2019-03-06T09:27:30.060Z,988.64
2019-03-06T09:28:30.040Z,988.60
2019-03-06T09:29:30.030Z,988.56
2019-03-06T09:30:30.022Z,988.57
2019-03-06T09:31:30.000Z,988.58
2019-03-06T09:32:30.059Z,988.63
2019-03-06T09:33:29.986Z,988.59
2019-03-06T09:34:29.972Z,988.58
2019-03-06T09:35:29.967Z,988.59
2019-03-06T09:36:29.955Z,988.43
2019-03-06T09:37:29.944Z,988.50
2019-03-06T09:38:29.958Z,988.44
2019-03-06T09:39:29.945Z,988.51
2019-03-06T09:40:29.915Z,988.46
2019-03-06T09:41:29.907Z,988.37
2019-03-06T09:42:30.002Z,988.39
2019-03-06T09:43:29.894Z,988.34
2019-03-06T09:44:29.893Z,988.31
2019-03-06T09:45:29.863Z,988.37
2019-03-06T09:46:29.929Z,988.28
2019-03-06T09:47:29.841Z,988.28
2019-03-06T09:48:29.856Z,988.31
2019-03-06T09:49:29.816Z,988.24
2019-03-06T09:50:29.845Z,988.25
2019-03-06T09:51:29.815Z,988.33
2019-03-06T09:52:29.797Z,988.17
2019-03-06T09:53:29.780Z,988.23
2019-03-06T09:54:29.813Z,988.10
2019-03-06T09:55:29.750Z,988.28
2019-03-06T09:56:29.752Z,988.20
2019-03-06T09:57:29.721Z,988.16
2019-03-06T09:58:29.723Z,988.22
2019-03-06T09:59:29.780Z,988.23
2019-03-06T10:00:29.733Z,988.30
2019-03-06T10:01:29.709Z,988.16
2019-03-06T10:02:29.686Z,988.20
2019-03-06T10:03:29.655Z,988.21
2019-03-06T10:04:29.656Z,988.13
2019-03-06T10:05:29.766Z,988.05
2019-03-06T10:06:29.653Z,988.12
2019-03-06T10:07:29.640Z,988.12
2019-03-06T10:08:29.619Z,988.11
2019-03-06T10:09:29.598Z,988.01
2019-03-06T10:10:29.593Z,988.05
2019-03-06T10:11:29.564Z,988.04
2019-03-06T10:12:29.559Z,987.93
2019-03-06T10:13:29.581Z,987.97
2019-03-06T10:14:29.582Z,987.87
2019-03-06T10:15:29.529Z,987.75
2019-03-06T10:16:29.515Z,987.81
2019-03-06T10:17:30.263Z,987.79
2019-03-06T10:18:29.491Z,987.73
2019-03-06T10:19:29.681Z,987.87
2019-03-06T10:20:29.504Z,987.90
2019-03-06T10:21:29.468Z,987.86
2019-03-06T10:22:29.466Z,987.86
2019-03-06T10:23:29.440Z,987.83
2019-03-06T10:24:29.429Z,987.81
2019-03-06T10:25:30.606Z,987.74
2019-03-06T10:26:29.471Z,987.72
2019-03-06T10:27:29.411Z,987.72
2019-03-06T10:28:29.392Z,987.77
2019-03-06T10:29:29.378Z,987.70
2019-03-06T10:30:29.380Z,987.74
2019-03-06T10:31:29.357Z,987.67
2019-03-06T10:32:29.385Z,987.67
2019-03-06T10:33:29.335Z,987.65
2019-03-06T10:34:29.321Z,987.62
2019-03-06T10:35:29.395Z,987.71
2019-03-06T10:36:29.304Z,987.77
2019-03-06T10:37:29.297Z,987.59
2019-03-06T10:38:29.278Z,987.66
2019-03-06T10:39:29.270Z,987.68
2019-03-06T10:40:29.261Z,987.71
2019-03-06T10:41:29.262Z,987.58
2019-03-06T10:42:29.237Z,987.62
2019-03-06T10:43:29.223Z,987.62
2019-03-06T10:44:30.018Z,987.73
2019-03-06T10:45:29.245Z,987.49
2019-03-06T10:46:29.226Z,987.50
2019-03-06T10:47:29.181Z,987.36
2019-03-06T10:48:29.201Z,987.31
2019-03-06T10:49:29.183Z,987.30
2019-03-06T10:50:30.002Z,987.27
2019-03-06T10:51:31.034Z,987.26
2019-03-06T10:52:29.164Z,987.22
2019-03-06T10:53:29.139Z,987.22
2019-03-06T10:54:29.110Z,987.22
2019-03-06T10:55:29.112Z,987.22
2019-03-06T10:56:29.087Z,987.22
2019-03-06T10:57:29.079Z,987.24
2019-03-06T10:58:29.054Z,987.21
2019-03-06T10:59:29.049Z,987.13
2019-03-06T11:00:29.038Z,987.07
2019-03-06T11:01:29.048Z,987.08
2019-03-06T11:02:29.027Z,987.03
2019-03-06T11:03:28.998Z,987.02
2019-03-06T11:04:29.005Z,986.98
2019-03-06T11:05:28.980Z,987.04
2019-03-06T11:06:29.005Z,987.09
2019-03-06T11:07:28.954Z,987.07
2019-03-06T11:08:28.946Z,987.03
2019-03-06T11:09:28.937Z,987.06
2019-03-06T11:10:28.922Z,987.02
2019-03-06T11:11:28.921Z,987.01
2019-03-06T11:12:28.960Z,986.99
2019-03-06T11:13:28.893Z,986.97
2019-03-06T11:14:28.896Z,986.95
2019-03-06T11:15:28.911Z,987.01
2019-03-06T11:16:28.889Z,987.00
2019-03-06T11:17:28.885Z,987.05
2019-03-06T11:18:28.837Z,987.02
2019-03-06T11:19:28.832Z,987.06
2019-03-06T11:20:28.821Z,987.05
2019-03-06T11:21:28.801Z,987.10
2019-03-06T11:22:28.834Z,987.00
2019-03-06T11:23:28.853Z,987.09
2019-03-06T11:24:28.779Z,987.10
2019-03-06T11:25:28.760Z,987.10
2019-03-06T11:26:28.752Z,987.05
2019-03-06T11:27:28.752Z,987.07
2019-03-06T11:28:28.751Z,987.05
2019-03-06T11:29:28.717Z,986.97
2019-03-06T11:30:28.707Z,986.98
2019-03-06T11:31:28.690Z,986.91
2019-03-06T11:32:28.682Z,986.86
2019-03-06T11:33:28.690Z,986.84
2019-03-06T11:34:28.669Z,986.72
2019-03-06T11:35:28.664Z,986.75
2019-03-06T11:36:28.652Z,986.75
2019-03-06T11:37:28.632Z,986.68
2019-03-06T11:38:28.628Z,986.78
2019-03-06T11:39:28.613Z,986.74
2019-03-06T11:40:28.604Z,986.60
2019-03-06T11:41:28.587Z,986.61
2019-03-06T11:42:28.581Z,986.53
2019-03-06T11:43:28.577Z,986.50
2019-03-06T11:44:28.640Z,986.43
2019-03-06T11:45:28.556Z,986.41
2019-03-06T11:46:28.523Z,986.52
2019-03-06T11:47:28.536Z,986.46
2019-03-06T11:48:28.517Z,986.42
2019-03-06T11:49:28.530Z,986.42
2019-03-06T11:50:28.569Z,986.38
2019-03-06T11:51:28.494Z,986.45
2019-03-06T11:52:28.510Z,986.39
2019-03-06T11:53:28.452Z,986.34
2019-03-06T11:54:28.448Z,986.30
2019-03-06T11:55:28.492Z,986.29
2019-03-06T11:56:28.416Z,986.27
2019-03-06T11:57:28.439Z,986.26
2019-03-06T11:58:28.451Z,986.23
2019-03-06T11:59:28.395Z,986.32
2019-03-06T12:00:28.507Z,986.17
2019-03-06T12:01:28.391Z,986.21
2019-03-06T12:02:28.385Z,986.14
2019-03-06T12:03:28.347Z,986.16
2019-03-06T12:04:28.358Z,986.14
2019-03-06T12:05:28.463Z,986.12
2019-03-06T12:06:28.308Z,986.18
2019-03-06T12:07:28.315Z,986.17
2019-03-06T12:08:28.297Z,986.26
2019-03-06T12:09:28.304Z,986.16
2019-03-06T12:10:28.262Z,986.12
2019-03-06T12:11:28.279Z,986.08
2019-03-06T12:12:28.278Z,986.04
2019-03-06T12:13:28.256Z,986.05
2019-03-06T12:14:28.227Z,985.97
2019-03-06T12:15:28.206Z,985.92
2019-03-06T12:16:28.214Z,985.91
2019-03-06T12:17:28.188Z,985.91
2019-03-06T12:18:28.314Z,985.83
2019-03-06T12:19:28.194Z,985.87
2019-03-06T12:20:28.158Z,985.79
2019-03-06T12:21:28.172Z,985.73
2019-03-06T12:22:28.153Z,985.70
2019-03-06T12:23:28.117Z,985.61
2019-03-06T12:24:28.118Z,985.62
2019-03-06T12:25:28.129Z,985.60
2019-03-06T12:26:28.091Z,985.58
2019-03-06T12:27:28.433Z,985.55
2019-03-06T12:28:28.076Z,985.60